sensor_id;sensor_type;location;lat;lon;timestamp;temperature;humidity
67141;DHT22;54058;52.010;5.546;2024-02-28T00:01:51;5.00;99.90
67141;DHT22;54058;52.010;5.546;2024-02-28T00:04:17;5.00;99.90
67141;DHT22;54058;52.010;5.546;2024-02-28T00:06:42;5.10;99.90
67141;DHT22;54058;52.010;5.546;2024-02-28T00:09:09;5.10;99.90
67141;DHT22;54058;52.010;5.546;2024-02-28T00:11:35;5.10;99.90
67141;DHT22;54058;52.010;5.546;2024-02-28T00:14:00;5.10;99.90
67141;DHT22;54058;52.010;5.546;2024-02-28T00:16:26;5.10;99.90
67141;DHT22;54058;52.010;5.546;2024-02-28T00:18:52;5.00;99.90
67141;DHT22;54058;52.010;5.546;2024-02-28T00:21:17;5.00;99.90
67141;DHT22;54058;52.010;5.546;2024-02-28T00:23:43;5.00;99.90
67141;DHT22;54058;52.010;5.546;2024-02-28T00:26:08;5.00;99.90
67141;DHT22;54058;52.010;5.546;2024-02-28T00:28:34;4.90;99.90
67141;DHT22;54058;52.010;5.546;2024-02-28T00:30:59;4.80;99.90
67141;DHT22;54058;52.010;5.546;2024-02-28T00:33:25;4.70;99.90
67141;DHT22;54058;52.010;5.546;2024-02-28T00:35:50;4.80;99.90
67141;DHT22;54058;52.010;5.546;2024-02-28T00:38:18;4.80;99.90
67141;DHT22;54058;52.010;5.546;2024-02-28T00:40:44;4.80;99.90
67141;DHT22;54058;52.010;5.546;2024-02-28T00:43:09;4.90;99.90
67141;DHT22;54058;52.010;5.546;2024-02-28T00:45:35;5.00;99.90
67141;DHT22;54058;52.010;5.546;2024-02-28T00:48:01;5.00;99.90
67141;DHT22;54058;52.010;5.546;2024-02-28T00:50:26;5.10;99.90
67141;DHT22;54058;52.010;5.546;2024-02-28T00:52:52;5.10;99.90
67141;DHT22;54058;52.010;5.546;2024-02-28T00:55:17;5.10;99.90
67141;DHT22;54058;52.010;5.546;2024-02-28T00:57:44;5.20;99.90
67141;DHT22;54058;52.010;5.546;2024-02-28T01:00:10;5.10;99.90
67141;DHT22;54058;52.010;5.546;2024-02-28T01:02:35;5.10;99.90
67141;DHT22;54058;52.010;5.546;2024-02-28T01:05:01;5.10;99.90
67141;DHT22;54058;52.010;5.546;2024-02-28T01:07:26;5.10;99.90
67141;DHT22;54058;52.010;5.546;2024-02-28T01:09:52;5.10;99.90
67141;DHT22;54058;52.010;5.546;2024-02-28T01:12:17;5.10;99.90
67141;DHT22;54058;52.010;5.546;2024-02-28T01:14:43;5.10;99.90
67141;DHT22;54058;52.010;5.546;2024-02-28T01:17:08;5.10;99.90
67141;DHT22;54058;52.010;5.546;2024-02-28T01:19:34;5.00;99.90
67141;DHT22;54058;52.010;5.546;2024-02-28T01:22:00;5.00;99.90
67141;DHT22;54058;52.010;5.546;2024-02-28T01:24:25;5.00;99.90
67141;DHT22;54058;52.010;5.546;2024-02-28T01:26:51;5.10;99.90
67141;DHT22;54058;52.010;5.546;2024-02-28T01:29:16;5.00;99.90
67141;DHT22;54058;52.010;5.546;2024-02-28T01:31:42;5.10;99.90
67141;DHT22;54058;52.010;5.546;2024-02-28T01:34:07;5.10;99.90
67141;DHT22;54058;52.010;5.546;2024-02-28T01:36:33;5.00;99.90
67141;DHT22;54058;52.010;5.546;2024-02-28T01:38:59;5.00;99.90
67141;DHT22;54058;52.010;5.546;2024-02-28T01:41:24;5.00;99.90
67141;DHT22;54058;52.010;5.546;2024-02-28T01:43:50;5.00;99.90
67141;DHT22;54058;52.010;5.546;2024-02-28T01:46:28;4.90;99.90
67141;DHT22;54058;52.010;5.546;2024-02-28T01:48:54;4.90;99.90
67141;DHT22;54058;52.010;5.546;2024-02-28T01:51:21;4.80;99.90
67141;DHT22;54058;52.010;5.546;2024-02-28T01:53:47;4.80;99.90
67141;DHT22;54058;52.010;5.546;2024-02-28T01:56:13;4.80;99.90
67141;DHT22;54058;52.010;5.546;2024-02-28T01:58:39;4.80;99.90
67141;DHT22;54058;52.010;5.546;2024-02-28T02:01:05;4.80;99.90
67141;DHT22;54058;52.010;5.546;2024-02-28T02:03:32;4.70;99.90
67141;DHT22;54058;52.010;5.546;2024-02-28T02:06:01;4.70;99.90
67141;DHT22;54058;52.010;5.546;2024-02-28T02:08:26;4.70;99.90
67141;DHT22;54058;52.010;5.546;2024-02-28T02:10:52;4.40;99.90
67141;DHT22;54058;52.010;5.546;2024-02-28T02:13:17;4.40;99.90
67141;DHT22;54058;52.010;5.546;2024-02-28T02:15:43;4.40;99.90
67141;DHT22;54058;52.010;5.546;2024-02-28T02:18:08;4.30;99.90
67141;DHT22;54058;52.010;5.546;2024-02-28T02:20:34;4.30;99.90
67141;DHT22;54058;52.010;5.546;2024-02-28T02:23:03;4.20;99.90
67141;DHT22;54058;52.010;5.546;2024-02-28T02:25:29;4.10;99.90
67141;DHT22;54058;52.010;5.546;2024-02-28T02:27:54;4.10;99.90
67141;DHT22;54058;52.010;5.546;2024-02-28T02:30:20;4.20;99.90
67141;DHT22;54058;52.010;5.546;2024-02-28T02:32:45;4.20;99.90
67141;DHT22;54058;52.010;5.546;2024-02-28T02:35:11;4.10;99.90
67141;DHT22;54058;52.010;5.546;2024-02-28T02:37:36;4.00;99.90
67141;DHT22;54058;52.010;5.546;2024-02-28T02:40:02;4.10;99.90
67141;DHT22;54058;52.010;5.546;2024-02-28T02:42:28;4.00;99.90
67141;DHT22;54058;52.010;5.546;2024-02-28T02:44:53;4.00;99.90
67141;DHT22;54058;52.010;5.546;2024-02-28T02:47:18;4.10;99.90
67141;DHT22;54058;52.010;5.546;2024-02-28T02:49:44;4.00;99.90
67141;DHT22;54058;52.010;5.546;2024-02-28T02:52:09;4.00;99.90
67141;DHT22;54058;52.010;5.546;2024-02-28T02:54:36;3.90;99.90
67141;DHT22;54058;52.010;5.546;2024-02-28T02:57:01;4.00;99.90
67141;DHT22;54058;52.010;5.546;2024-02-28T02:59:27;4.00;99.90
67141;DHT22;54058;52.010;5.546;2024-02-28T03:01:53;4.00;99.90
67141;DHT22;54058;52.010;5.546;2024-02-28T03:04:18;4.00;99.90
67141;DHT22;54058;52.010;5.546;2024-02-28T03:06:44;3.90;99.90
67141;DHT22;54058;52.010;5.546;2024-02-28T03:09:09;4.00;99.90
67141;DHT22;54058;52.010;5.546;2024-02-28T03:11:35;4.00;99.90
67141;DHT22;54058;52.010;5.546;2024-02-28T03:14:00;4.00;99.90
67141;DHT22;54058;52.010;5.546;2024-02-28T03:16:26;4.00;99.90
67141;DHT22;54058;52.010;5.546;2024-02-28T03:18:52;4.10;99.90
67141;DHT22;54058;52.010;5.546;2024-02-28T03:21:17;4.10;99.90
67141;DHT22;54058;52.010;5.546;2024-02-28T03:23:43;3.90;99.90
67141;DHT22;54058;52.010;5.546;2024-02-28T03:26:08;3.80;99.90
67141;DHT22;54058;52.010;5.546;2024-02-28T03:28:34;3.80;99.90
67141;DHT22;54058;52.010;5.546;2024-02-28T03:30:59;3.80;99.90
67141;DHT22;54058;52.010;5.546;2024-02-28T03:33:25;3.80;99.90
67141;DHT22;54058;52.010;5.546;2024-02-28T03:35:50;3.70;99.90
67141;DHT22;54058;52.010;5.546;2024-02-28T03:38:16;3.80;99.90
67141;DHT22;54058;52.010;5.546;2024-02-28T03:40:41;3.80;99.90
67141;DHT22;54058;52.010;5.546;2024-02-28T03:43:07;3.80;99.90
67141;DHT22;54058;52.010;5.546;2024-02-28T03:45:37;3.80;99.90
67141;DHT22;54058;52.010;5.546;2024-02-28T03:48:04;3.80;99.90
67141;DHT22;54058;52.010;5.546;2024-02-28T03:50:29;3.80;99.90
67141;DHT22;54058;52.010;5.546;2024-02-28T03:52:55;3.70;99.90
67141;DHT22;54058;52.010;5.546;2024-02-28T03:55:21;3.70;99.90
67141;DHT22;54058;52.010;5.546;2024-02-28T03:57:49;3.70;99.90
67141;DHT22;54058;52.010;5.546;2024-02-28T04:00:17;3.70;99.90
67141;DHT22;54058;52.010;5.546;2024-02-28T04:02:42;3.70;99.90
67141;DHT22;54058;52.010;5.546;2024-02-28T04:05:08;3.80;99.90
67141;DHT22;54058;52.010;5.546;2024-02-28T04:07:33;3.70;99.90
67141;DHT22;54058;52.010;5.546;2024-02-28T04:09:59;3.70;99.90
67141;DHT22;54058;52.010;5.546;2024-02-28T04:12:24;3.70;99.90
67141;DHT22;54058;52.010;5.546;2024-02-28T04:14:50;3.70;99.90
67141;DHT22;54058;52.010;5.546;2024-02-28T04:17:15;3.70;99.90
67141;DHT22;54058;52.010;5.546;2024-02-28T04:19:41;3.80;99.90
67141;DHT22;54058;52.010;5.546;2024-02-28T04:22:06;3.80;99.90
67141;DHT22;54058;52.010;5.546;2024-02-28T04:24:32;3.80;99.90
67141;DHT22;54058;52.010;5.546;2024-02-28T04:26:58;3.80;99.90
67141;DHT22;54058;52.010;5.546;2024-02-28T04:29:25;3.70;99.90
67141;DHT22;54058;52.010;5.546;2024-02-28T04:31:50;3.80;99.90
67141;DHT22;54058;52.010;5.546;2024-02-28T04:34:16;3.80;99.90
67141;DHT22;54058;52.010;5.546;2024-02-28T04:36:41;3.90;99.90
67141;DHT22;54058;52.010;5.546;2024-02-28T04:39:07;4.00;99.90
67141;DHT22;54058;52.010;5.546;2024-02-28T04:41:33;4.00;99.90
67141;DHT22;54058;52.010;5.546;2024-02-28T04:43:59;4.10;99.90
67141;DHT22;54058;52.010;5.546;2024-02-28T04:46:24;4.10;99.90
67141;DHT22;54058;52.010;5.546;2024-02-28T04:48:50;4.10;99.90
67141;DHT22;54058;52.010;5.546;2024-02-28T04:51:16;4.00;99.90
67141;DHT22;54058;52.010;5.546;2024-02-28T04:53:44;4.10;99.90
67141;DHT22;54058;52.010;5.546;2024-02-28T04:56:09;4.10;99.90
67141;DHT22;54058;52.010;5.546;2024-02-28T04:58:35;4.10;99.90
67141;DHT22;54058;52.010;5.546;2024-02-28T05:01:01;4.00;99.90
67141;DHT22;54058;52.010;5.546;2024-02-28T05:03:26;4.10;99.90
67141;DHT22;54058;52.010;5.546;2024-02-28T05:05:52;4.10;99.90
67141;DHT22;54058;52.010;5.546;2024-02-28T05:08:19;4.20;99.90
67141;DHT22;54058;52.010;5.546;2024-02-28T05:10:45;4.30;99.90
67141;DHT22;54058;52.010;5.546;2024-02-28T05:13:13;4.40;99.90
67141;DHT22;54058;52.010;5.546;2024-02-28T05:15:39;4.40;99.90
67141;DHT22;54058;52.010;5.546;2024-02-28T05:18:05;4.40;99.90
67141;DHT22;54058;52.010;5.546;2024-02-28T05:20:30;4.40;99.90
67141;DHT22;54058;52.010;5.546;2024-02-28T05:22:56;4.30;99.90
67141;DHT22;54058;52.010;5.546;2024-02-28T05:25:22;4.40;99.90
67141;DHT22;54058;52.010;5.546;2024-02-28T05:27:47;4.40;99.90
67141;DHT22;54058;52.010;5.546;2024-02-28T05:30:13;4.40;99.90
67141;DHT22;54058;52.010;5.546;2024-02-28T05:32:38;4.50;99.90
67141;DHT22;54058;52.010;5.546;2024-02-28T05:35:04;4.50;99.90
67141;DHT22;54058;52.010;5.546;2024-02-28T05:37:30;4.60;99.90
67141;DHT22;54058;52.010;5.546;2024-02-28T05:39:55;4.60;99.90
67141;DHT22;54058;52.010;5.546;2024-02-28T05:42:21;4.70;99.90
67141;DHT22;54058;52.010;5.546;2024-02-28T05:44:49;4.70;99.90
67141;DHT22;54058;52.010;5.546;2024-02-28T05:47:15;4.70;99.90
67141;DHT22;54058;52.010;5.546;2024-02-28T05:49:42;4.70;99.90
67141;DHT22;54058;52.010;5.546;2024-02-28T05:52:07;4.60;99.90
67141;DHT22;54058;52.010;5.546;2024-02-28T05:54:33;4.60;99.90
67141;DHT22;54058;52.010;5.546;2024-02-28T05:57:01;4.60;99.90
67141;DHT22;54058;52.010;5.546;2024-02-28T05:59:26;4.60;99.90
67141;DHT22;54058;52.010;5.546;2024-02-28T06:01:52;4.60;99.90
67141;DHT22;54058;52.010;5.546;2024-02-28T06:04:17;4.60;99.90
67141;DHT22;54058;52.010;5.546;2024-02-28T06:06:43;4.60;99.90
67141;DHT22;54058;52.010;5.546;2024-02-28T06:09:08;4.60;99.90
67141;DHT22;54058;52.010;5.546;2024-02-28T06:11:34;4.70;99.90
67141;DHT22;54058;52.010;5.546;2024-02-28T06:13:59;4.80;99.90
67141;DHT22;54058;52.010;5.546;2024-02-28T06:16:25;4.90;99.90
67141;DHT22;54058;52.010;5.546;2024-02-28T06:18:50;5.00;99.90
67141;DHT22;54058;52.010;5.546;2024-02-28T06:21:16;5.00;99.90
67141;DHT22;54058;52.010;5.546;2024-02-28T06:23:42;5.00;99.90
67141;DHT22;54058;52.010;5.546;2024-02-28T06:26:07;5.00;99.90
67141;DHT22;54058;52.010;5.546;2024-02-28T06:28:40;5.00;99.90
67141;DHT22;54058;52.010;5.546;2024-02-28T06:31:11;5.10;99.90
67141;DHT22;54058;52.010;5.546;2024-02-28T06:33:37;5.10;99.90
67141;DHT22;54058;52.010;5.546;2024-02-28T06:36:02;5.20;99.90
67141;DHT22;54058;52.010;5.546;2024-02-28T06:38:28;5.20;99.90
67141;DHT22;54058;52.010;5.546;2024-02-28T06:40:53;5.20;99.90
67141;DHT22;54058;52.010;5.546;2024-02-28T06:43:19;5.30;99.90
67141;DHT22;54058;52.010;5.546;2024-02-28T06:45:44;5.30;99.90
67141;DHT22;54058;52.010;5.546;2024-02-28T06:48:10;5.30;99.90
67141;DHT22;54058;52.010;5.546;2024-02-28T06:50:35;5.30;99.90
67141;DHT22;54058;52.010;5.546;2024-02-28T06:53:01;5.40;99.90
67141;DHT22;54058;52.010;5.546;2024-02-28T06:55:26;5.40;99.90
67141;DHT22;54058;52.010;5.546;2024-02-28T06:57:52;5.40;99.90
67141;DHT22;54058;52.010;5.546;2024-02-28T07:00:18;5.50;99.90
67141;DHT22;54058;52.010;5.546;2024-02-28T07:02:46;5.40;99.90
67141;DHT22;54058;52.010;5.546;2024-02-28T07:05:12;5.40;99.90
67141;DHT22;54058;52.010;5.546;2024-02-28T07:07:37;5.40;99.90
67141;DHT22;54058;52.010;5.546;2024-02-28T07:10:03;5.50;99.90
67141;DHT22;54058;52.010;5.546;2024-02-28T07:12:29;5.50;99.90
67141;DHT22;54058;52.010;5.546;2024-02-28T07:14:55;5.60;99.90
67141;DHT22;54058;52.010;5.546;2024-02-28T07:17:20;5.60;99.90
67141;DHT22;54058;52.010;5.546;2024-02-28T07:19:46;5.60;99.90
67141;DHT22;54058;52.010;5.546;2024-02-28T07:22:11;5.60;99.90
67141;DHT22;54058;52.010;5.546;2024-02-28T07:24:37;5.60;99.90
67141;DHT22;54058;52.010;5.546;2024-02-28T07:27:03;5.60;99.90
67141;DHT22;54058;52.010;5.546;2024-02-28T07:29:28;5.60;99.90
67141;DHT22;54058;52.010;5.546;2024-02-28T07:31:54;5.60;99.90
67141;DHT22;54058;52.010;5.546;2024-02-28T07:34:19;5.60;99.90
67141;DHT22;54058;52.010;5.546;2024-02-28T07:36:45;5.70;99.90
67141;DHT22;54058;52.010;5.546;2024-02-28T07:39:10;5.70;99.90
67141;DHT22;54058;52.010;5.546;2024-02-28T07:41:38;5.70;99.90
67141;DHT22;54058;52.010;5.546;2024-02-28T07:44:04;5.70;99.90
67141;DHT22;54058;52.010;5.546;2024-02-28T07:46:29;5.70;99.90
67141;DHT22;54058;52.010;5.546;2024-02-28T07:48:55;5.80;99.90
67141;DHT22;54058;52.010;5.546;2024-02-28T07:51:20;5.80;99.90
67141;DHT22;54058;52.010;5.546;2024-02-28T07:53:47;6.00;99.90
67141;DHT22;54058;52.010;5.546;2024-02-28T07:56:16;6.10;99.90
67141;DHT22;54058;52.010;5.546;2024-02-28T07:58:42;6.00;99.90
67141;DHT22;54058;52.010;5.546;2024-02-28T08:01:08;6.00;99.90
67141;DHT22;54058;52.010;5.546;2024-02-28T08:03:34;6.00;99.90
67141;DHT22;54058;52.010;5.546;2024-02-28T08:05:59;6.10;99.90
67141;DHT22;54058;52.010;5.546;2024-02-28T08:08:25;6.10;99.90
67141;DHT22;54058;52.010;5.546;2024-02-28T08:10:50;6.10;99.90
67141;DHT22;54058;52.010;5.546;2024-02-28T08:13:18;6.10;99.90
67141;DHT22;54058;52.010;5.546;2024-02-28T08:15:44;6.10;99.90
67141;DHT22;54058;52.010;5.546;2024-02-28T08:18:09;6.10;99.90
67141;DHT22;54058;52.010;5.546;2024-02-28T08:20:36;6.10;99.90
67141;DHT22;54058;52.010;5.546;2024-02-28T08:23:02;6.10;99.90
67141;DHT22;54058;52.010;5.546;2024-02-28T08:25:28;6.00;99.90
67141;DHT22;54058;52.010;5.546;2024-02-28T08:27:54;6.10;99.90
67141;DHT22;54058;52.010;5.546;2024-02-28T08:30:19;6.10;99.90
67141;DHT22;54058;52.010;5.546;2024-02-28T08:32:45;6.10;99.90
67141;DHT22;54058;52.010;5.546;2024-02-28T08:35:10;6.10;99.90
67141;DHT22;54058;52.010;5.546;2024-02-28T08:37:39;6.20;99.90
67141;DHT22;54058;52.010;5.546;2024-02-28T08:40:05;6.20;99.90
67141;DHT22;54058;52.010;5.546;2024-02-28T08:42:30;6.30;99.90
67141;DHT22;54058;52.010;5.546;2024-02-28T08:44:56;6.20;99.90
67141;DHT22;54058;52.010;5.546;2024-02-28T08:47:25;6.30;99.90
67141;DHT22;54058;52.010;5.546;2024-02-28T08:49:51;6.30;99.90
67141;DHT22;54058;52.010;5.546;2024-02-28T08:52:16;6.40;99.90
67141;DHT22;54058;52.010;5.546;2024-02-28T08:54:42;6.50;99.90
67141;DHT22;54058;52.010;5.546;2024-02-28T08:57:07;6.60;99.90
67141;DHT22;54058;52.010;5.546;2024-02-28T08:59:33;6.60;99.90
67141;DHT22;54058;52.010;5.546;2024-02-28T09:01:58;6.60;99.90
67141;DHT22;54058;52.010;5.546;2024-02-28T09:04:24;6.60;99.90
67141;DHT22;54058;52.010;5.546;2024-02-28T09:06:50;6.70;99.90
67141;DHT22;54058;52.010;5.546;2024-02-28T09:09:15;6.70;99.90
67141;DHT22;54058;52.010;5.546;2024-02-28T09:11:42;6.70;99.90
67141;DHT22;54058;52.010;5.546;2024-02-28T09:14:07;6.70;99.90
67141;DHT22;54058;52.010;5.546;2024-02-28T09:16:33;6.70;99.90
67141;DHT22;54058;52.010;5.546;2024-02-28T09:18:58;6.70;99.90
67141;DHT22;54058;52.010;5.546;2024-02-28T09:21:24;6.80;99.90
67141;DHT22;54058;52.010;5.546;2024-02-28T09:23:49;6.80;99.90
67141;DHT22;54058;52.010;5.546;2024-02-28T09:26:15;6.90;99.90
67141;DHT22;54058;52.010;5.546;2024-02-28T09:28:40;6.90;99.90
67141;DHT22;54058;52.010;5.546;2024-02-28T09:31:05;6.90;99.90
67141;DHT22;54058;52.010;5.546;2024-02-28T09:33:31;7.00;99.90
67141;DHT22;54058;52.010;5.546;2024-02-28T09:35:56;7.10;99.90
67141;DHT22;54058;52.010;5.546;2024-02-28T09:38:22;7.10;99.90
67141;DHT22;54058;52.010;5.546;2024-02-28T09:40:48;7.20;99.90
67141;DHT22;54058;52.010;5.546;2024-02-28T09:43:15;7.30;99.90
67141;DHT22;54058;52.010;5.546;2024-02-28T09:45:43;7.30;99.90
67141;DHT22;54058;52.010;5.546;2024-02-28T09:48:08;7.30;99.90
67141;DHT22;54058;52.010;5.546;2024-02-28T09:50:34;7.40;99.90
67141;DHT22;54058;52.010;5.546;2024-02-28T09:53:00;7.50;99.90
67141;DHT22;54058;52.010;5.546;2024-02-28T09:55:26;7.50;99.90
67141;DHT22;54058;52.010;5.546;2024-02-28T09:57:51;7.60;99.90
67141;DHT22;54058;52.010;5.546;2024-02-28T10:00:19;7.70;99.90
67141;DHT22;54058;52.010;5.546;2024-02-28T10:02:45;7.70;99.90
67141;DHT22;54058;52.010;5.546;2024-02-28T10:05:12;7.80;99.90
67141;DHT22;54058;52.010;5.546;2024-02-28T10:07:37;7.90;99.90
67141;DHT22;54058;52.010;5.546;2024-02-28T10:10:03;7.80;99.90
67141;DHT22;54058;52.010;5.546;2024-02-28T10:12:29;7.80;99.90
67141;DHT22;54058;52.010;5.546;2024-02-28T10:14:54;7.90;99.90
67141;DHT22;54058;52.010;5.546;2024-02-28T10:17:20;8.00;99.90
67141;DHT22;54058;52.010;5.546;2024-02-28T10:19:45;8.00;99.90
67141;DHT22;54058;52.010;5.546;2024-02-28T10:22:11;8.10;99.90
67141;DHT22;54058;52.010;5.546;2024-02-28T10:24:36;8.20;99.90
67141;DHT22;54058;52.010;5.546;2024-02-28T10:27:03;8.30;99.90
67141;DHT22;54058;52.010;5.546;2024-02-28T10:29:28;8.40;99.90
67141;DHT22;54058;52.010;5.546;2024-02-28T10:31:55;8.50;99.90
67141;DHT22;54058;52.010;5.546;2024-02-28T10:34:20;8.50;99.90
67141;DHT22;54058;52.010;5.546;2024-02-28T10:36:46;8.50;99.90
67141;DHT22;54058;52.010;5.546;2024-02-28T10:39:12;8.50;99.90
67141;DHT22;54058;52.010;5.546;2024-02-28T10:41:38;8.50;99.90
67141;DHT22;54058;52.010;5.546;2024-02-28T10:44:03;8.60;99.90
67141;DHT22;54058;52.010;5.546;2024-02-28T10:46:29;8.60;99.90
67141;DHT22;54058;52.010;5.546;2024-02-28T10:48:55;8.70;99.90
67141;DHT22;54058;52.010;5.546;2024-02-28T10:51:25;8.70;99.90
67141;DHT22;54058;52.010;5.546;2024-02-28T10:54:10;8.80;99.90
67141;DHT22;54058;52.010;5.546;2024-02-28T10:56:39;8.80;99.90
67141;DHT22;54058;52.010;5.546;2024-02-28T10:59:06;8.80;99.90
67141;DHT22;54058;52.010;5.546;2024-02-28T11:01:34;8.90;99.90
67141;DHT22;54058;52.010;5.546;2024-02-28T11:03:59;9.00;99.90
67141;DHT22;54058;52.010;5.546;2024-02-28T11:06:25;9.20;99.90
67141;DHT22;54058;52.010;5.546;2024-02-28T11:08:51;9.30;99.90
67141;DHT22;54058;52.010;5.546;2024-02-28T11:11:21;9.40;99.90
67141;DHT22;54058;52.010;5.546;2024-02-28T11:13:54;9.50;99.90
67141;DHT22;54058;52.010;5.546;2024-02-28T11:16:58;9.60;99.90
67141;DHT22;54058;52.010;5.546;2024-02-28T11:19:21;9.60;99.90
67141;DHT22;54058;52.010;5.546;2024-02-28T11:21:56;9.70;99.90
67141;DHT22;54058;52.010;5.546;2024-02-28T11:24:27;9.90;99.90
67141;DHT22;54058;52.010;5.546;2024-02-28T11:26:54;9.90;99.90
67141;DHT22;54058;52.010;5.546;2024-02-28T11:29:26;10.00;99.90
67141;DHT22;54058;52.010;5.546;2024-02-28T11:31:52;10.20;99.90
67141;DHT22;54058;52.010;5.546;2024-02-28T11:34:19;10.30;99.90
67141;DHT22;54058;52.010;5.546;2024-02-28T11:36:48;10.50;99.90
67141;DHT22;54058;52.010;5.546;2024-02-28T11:39:14;10.50;99.90
67141;DHT22;54058;52.010;5.546;2024-02-28T11:41:40;10.50;99.90
67141;DHT22;54058;52.010;5.546;2024-02-28T11:44:05;10.60;99.90
67141;DHT22;54058;52.010;5.546;2024-02-28T11:46:31;10.60;99.90
67141;DHT22;54058;52.010;5.546;2024-02-28T11:48:57;10.60;99.90
67141;DHT22;54058;52.010;5.546;2024-02-28T11:51:23;10.70;99.90
67141;DHT22;54058;52.010;5.546;2024-02-28T11:53:48;10.70;99.90
67141;DHT22;54058;52.010;5.546;2024-02-28T11:56:14;10.70;99.90
67141;DHT22;54058;52.010;5.546;2024-02-28T11:58:49;10.70;99.90
67141;DHT22;54058;52.010;5.546;2024-02-28T12:01:14;10.70;99.90
67141;DHT22;54058;52.010;5.546;2024-02-28T12:03:44;10.70;99.90
67141;DHT22;54058;52.010;5.546;2024-02-28T12:06:09;10.70;99.90
67141;DHT22;54058;52.010;5.546;2024-02-28T12:08:36;10.60;99.90
67141;DHT22;54058;52.010;5.546;2024-02-28T12:11:08;10.60;99.90
67141;DHT22;54058;52.010;5.546;2024-02-28T12:13:36;10.60;99.90
67141;DHT22;54058;52.010;5.546;2024-02-28T12:16:02;10.70;99.90
67141;DHT22;54058;52.010;5.546;2024-02-28T12:18:29;10.70;99.90
67141;DHT22;54058;52.010;5.546;2024-02-28T12:20:54;10.70;99.90
67141;DHT22;54058;52.010;5.546;2024-02-28T12:23:20;10.80;99.90
67141;DHT22;54058;52.010;5.546;2024-02-28T12:25:46;10.80;99.90
67141;DHT22;54058;52.010;5.546;2024-02-28T12:28:11;10.90;99.90
67141;DHT22;54058;52.010;5.546;2024-02-28T12:30:41;10.90;99.90
67141;DHT22;54058;52.010;5.546;2024-02-28T12:33:10;10.90;99.90
67141;DHT22;54058;52.010;5.546;2024-02-28T12:35:39;10.90;99.90
67141;DHT22;54058;52.010;5.546;2024-02-28T12:38:04;11.00;99.90
67141;DHT22;54058;52.010;5.546;2024-02-28T12:40:30;11.00;99.90
67141;DHT22;54058;52.010;5.546;2024-02-28T12:42:56;10.90;99.90
67141;DHT22;54058;52.010;5.546;2024-02-28T12:45:21;11.00;99.90
67141;DHT22;54058;52.010;5.546;2024-02-28T12:47:47;11.00;99.90
67141;DHT22;54058;52.010;5.546;2024-02-28T12:50:13;11.00;99.90
67141;DHT22;54058;52.010;5.546;2024-02-28T12:52:38;10.90;99.90
67141;DHT22;54058;52.010;5.546;2024-02-28T12:55:04;11.00;99.90
67141;DHT22;54058;52.010;5.546;2024-02-28T12:57:30;11.00;99.90
67141;DHT22;54058;52.010;5.546;2024-02-28T12:59:55;11.00;99.90
67141;DHT22;54058;52.010;5.546;2024-02-28T13:02:21;11.10;99.90
67141;DHT22;54058;52.010;5.546;2024-02-28T13:04:47;11.10;99.90
67141;DHT22;54058;52.010;5.546;2024-02-28T13:07:12;11.10;99.90
67141;DHT22;54058;52.010;5.546;2024-02-28T13:09:38;11.20;99.90
67141;DHT22;54058;52.010;5.546;2024-02-28T13:12:04;11.30;99.90
67141;DHT22;54058;52.010;5.546;2024-02-28T13:14:30;11.30;99.90
67141;DHT22;54058;52.010;5.546;2024-02-28T13:16:56;11.30;99.90
67141;DHT22;54058;52.010;5.546;2024-02-28T13:19:23;11.30;99.90
67141;DHT22;54058;52.010;5.546;2024-02-28T13:21:49;11.40;99.90
67141;DHT22;54058;52.010;5.546;2024-02-28T13:24:14;11.40;99.90
67141;DHT22;54058;52.010;5.546;2024-02-28T13:26:41;11.40;99.90
67141;DHT22;54058;52.010;5.546;2024-02-28T13:29:07;11.40;99.90
67141;DHT22;54058;52.010;5.546;2024-02-28T13:31:33;11.40;99.90
67141;DHT22;54058;52.010;5.546;2024-02-28T13:33:59;11.30;99.90
67141;DHT22;54058;52.010;5.546;2024-02-28T13:36:24;11.30;99.90
67141;DHT22;54058;52.010;5.546;2024-02-28T13:38:50;11.30;99.90
67141;DHT22;54058;52.010;5.546;2024-02-28T13:41:15;11.40;99.90
67141;DHT22;54058;52.010;5.546;2024-02-28T13:43:41;11.50;99.90
67141;DHT22;54058;52.010;5.546;2024-02-28T13:46:07;11.50;99.90
67141;DHT22;54058;52.010;5.546;2024-02-28T13:48:32;11.60;99.90
67141;DHT22;54058;52.010;5.546;2024-02-28T13:50:59;11.60;99.90
67141;DHT22;54058;52.010;5.546;2024-02-28T13:53:24;11.70;99.90
67141;DHT22;54058;52.010;5.546;2024-02-28T13:55:50;11.70;99.90
67141;DHT22;54058;52.010;5.546;2024-02-28T13:58:16;11.70;99.90
67141;DHT22;54058;52.010;5.546;2024-02-28T14:00:45;11.80;99.90
67141;DHT22;54058;52.010;5.546;2024-02-28T14:03:13;11.80;99.90
67141;DHT22;54058;52.010;5.546;2024-02-28T14:05:38;11.70;99.90
67141;DHT22;54058;52.010;5.546;2024-02-28T14:08:04;11.80;99.90
67141;DHT22;54058;52.010;5.546;2024-02-28T14:10:32;11.80;99.90
67141;DHT22;54058;52.010;5.546;2024-02-28T14:12:58;11.80;99.90
67141;DHT22;54058;52.010;5.546;2024-02-28T14:15:23;11.70;99.90
67141;DHT22;54058;52.010;5.546;2024-02-28T14:17:49;11.70;99.90
67141;DHT22;54058;52.010;5.546;2024-02-28T14:20:14;11.60;99.90
67141;DHT22;54058;52.010;5.546;2024-02-28T14:22:40;11.60;99.90
67141;DHT22;54058;52.010;5.546;2024-02-28T14:25:12;11.40;99.90
67141;DHT22;54058;52.010;5.546;2024-02-28T14:27:38;11.20;99.90
67141;DHT22;54058;52.010;5.546;2024-02-28T14:30:05;11.10;99.90
67141;DHT22;54058;52.010;5.546;2024-02-28T14:32:33;11.10;99.90
67141;DHT22;54058;52.010;5.546;2024-02-28T14:34:59;11.10;99.90
67141;DHT22;54058;52.010;5.546;2024-02-28T14:37:24;11.10;99.90
67141;DHT22;54058;52.010;5.546;2024-02-28T14:39:49;11.10;99.90
67141;DHT22;54058;52.010;5.546;2024-02-28T14:42:15;11.00;99.90
67141;DHT22;54058;52.010;5.546;2024-02-28T14:44:40;11.00;99.90
67141;DHT22;54058;52.010;5.546;2024-02-28T14:47:06;11.00;99.90
67141;DHT22;54058;52.010;5.546;2024-02-28T14:49:31;11.00;99.90
67141;DHT22;54058;52.010;5.546;2024-02-28T14:51:57;10.90;99.90
67141;DHT22;54058;52.010;5.546;2024-02-28T14:54:25;10.90;99.90
67141;DHT22;54058;52.010;5.546;2024-02-28T14:56:52;10.90;99.90
67141;DHT22;54058;52.010;5.546;2024-02-28T14:59:17;10.80;99.90
67141;DHT22;54058;52.010;5.546;2024-02-28T15:01:43;10.80;99.90
67141;DHT22;54058;52.010;5.546;2024-02-28T15:04:08;10.80;99.90
67141;DHT22;54058;52.010;5.546;2024-02-28T15:06:34;10.80;99.90
67141;DHT22;54058;52.010;5.546;2024-02-28T15:09:00;10.80;99.90
67141;DHT22;54058;52.010;5.546;2024-02-28T15:11:26;10.80;99.90
67141;DHT22;54058;52.010;5.546;2024-02-28T15:13:51;10.70;99.90
67141;DHT22;54058;52.010;5.546;2024-02-28T15:16:17;10.60;99.90
67141;DHT22;54058;52.010;5.546;2024-02-28T15:18:42;10.60;99.90
67141;DHT22;54058;52.010;5.546;2024-02-28T15:21:08;10.60;99.90
67141;DHT22;54058;52.010;5.546;2024-02-28T15:23:33;10.50;99.90
67141;DHT22;54058;52.010;5.546;2024-02-28T15:26:00;10.40;99.90
67141;DHT22;54058;52.010;5.546;2024-02-28T15:28:25;10.40;99.90
67141;DHT22;54058;52.010;5.546;2024-02-28T15:30:52;10.40;99.90
67141;DHT22;54058;52.010;5.546;2024-02-28T15:33:18;10.40;99.90
67141;DHT22;54058;52.010;5.546;2024-02-28T15:35:44;10.30;99.90